createdAt,value
2019-03-11T00:00:30.884Z,2.05
2019-03-11T00:01:40.990Z,1.97
2019-03-11T00:02:51.113Z,1.92
2019-03-11T00:04:01.096Z,1.91
2019-03-11T00:05:12.455Z,1.98
2019-03-11T00:06:22.321Z,2.03
2019-03-11T00:07:32.418Z,2.03
2019-03-11T00:08:42.513Z,2.01
2019-03-11T00:09:52.624Z,2.05
2019-03-11T00:11:02.779Z,2.01
2019-03-11T00:12:12.874Z,2.03
2019-03-11T00:13:23.001Z,2.03
2019-03-11T00:14:33.102Z,2.06
2019-03-11T00:15:43.205Z,1.98
2019-03-11T00:16:53.335Z,2.05
2019-03-11T00:18:03.466Z,1.98
2019-03-11T00:19:13.605Z,2.03
2019-03-11T00:20:23.717Z,2.06
2019-03-11T00:21:33.856Z,2.03
2019-03-11T00:22:43.963Z,2
2019-03-11T00:23:54.090Z,2.08
2019-03-11T00:25:04.204Z,1.97
2019-03-11T00:26:14.322Z,2.03
2019-03-11T00:27:24.444Z,2.05
2019-03-11T00:28:34.303Z,1.95
2019-03-11T00:29:44.411Z,2.06
2019-03-11T00:30:57.127Z,2
2019-03-11T00:32:06.986Z,1.97
2019-03-11T00:33:18.082Z,1.98
2019-03-11T00:34:28.199Z,1.95
2019-03-11T00:35:38.309Z,1.97
2019-03-11T00:36:48.409Z,2
2019-03-11T00:37:58.512Z,2
2019-03-11T00:39:08.617Z,1.98
2019-03-11T00:40:18.464Z,1.98
2019-03-11T00:41:28.597Z,2.08
2019-03-11T00:42:38.767Z,2.08
2019-03-11T00:43:48.883Z,2.05
2019-03-11T00:44:59.028Z,2.06
2019-03-11T00:46:09.233Z,2.09
2019-03-11T00:47:19.375Z,2.13
2019-03-11T00:48:29.488Z,2.1
2019-03-11T00:49:39.595Z,2.06
2019-03-11T00:50:49.702Z,2
2019-03-11T00:51:59.847Z,1.92
2019-03-11T00:53:09.961Z,1.95
2019-03-11T00:54:20.061Z,1.98
2019-03-11T00:55:30.166Z,1.94
2019-03-11T00:56:40.291Z,1.88
2019-03-11T00:57:50.136Z,1.85
2019-03-11T00:59:00.224Z,1.91
2019-03-11T01:00:10.317Z,1.85
2019-03-11T01:01:20.417Z,1.88
2019-03-11T01:02:30.518Z,1.84
2019-03-11T01:03:40.631Z,1.88
2019-03-11T01:04:50.748Z,1.79
2019-03-11T01:06:00.841Z,1.84
2019-03-11T01:07:10.941Z,1.85
2019-03-11T01:08:21.048Z,1.82
2019-03-11T01:09:31.157Z,1.84
2019-03-11T01:10:41.273Z,1.91
2019-03-11T01:11:51.375Z,1.87
2019-03-11T01:13:01.487Z,1.85
2019-03-11T01:14:11.631Z,1.92
2019-03-11T01:15:21.760Z,1.95
2019-03-11T01:16:31.943Z,1.98
2019-03-11T01:17:42.036Z,2.06
2019-03-11T01:18:52.134Z,2.01
2019-03-11T01:20:02.256Z,2.03
2019-03-11T01:21:12.361Z,2.05
2019-03-11T01:22:22.457Z,1.94
2019-03-11T01:23:32.317Z,1.98
2019-03-11T01:24:42.425Z,2.01
2019-03-11T01:25:52.530Z,2.06
2019-03-11T01:27:02.644Z,2.09
2019-03-11T01:28:12.504Z,2.08
2019-03-11T01:29:22.605Z,2.15
2019-03-11T01:30:32.707Z,2.12
2019-03-11T01:31:42.802Z,2.18
2019-03-11T01:32:52.963Z,2.16
2019-03-11T01:34:03.089Z,2.13
2019-03-11T01:35:13.237Z,2.12
2019-03-11T01:36:22.974Z,2.09
2019-03-11T01:37:33.071Z,2.13
2019-03-11T01:38:43.173Z,2.09
2019-03-11T01:39:53.013Z,2.1
2019-03-11T01:41:03.103Z,2.05
2019-03-11T01:42:13.202Z,2.12
2019-03-11T01:43:23.530Z,2.08
2019-03-11T01:44:33.626Z,2.18
2019-03-11T01:45:43.740Z,2.21
2019-03-11T01:46:53.850Z,2.27
2019-03-11T01:48:03.948Z,2.3
2019-03-11T01:49:14.118Z,2.19
2019-03-11T01:50:24.266Z,2.33
2019-03-11T01:51:34.369Z,2.33
2019-03-11T01:52:44.468Z,2.34
2019-03-11T01:53:54.588Z,2.42
2019-03-11T01:55:04.748Z,2.41
2019-03-11T01:56:14.839Z,2.3
2019-03-11T01:57:24.929Z,2.36
2019-03-11T01:58:35.034Z,2.36
2019-03-11T01:59:45.131Z,2.36
2019-03-11T02:00:55.219Z,2.39
2019-03-11T02:02:05.340Z,2.42
2019-03-11T02:03:15.445Z,2.45
2019-03-11T02:04:25.536Z,2.42
2019-03-11T02:05:35.656Z,2.48
2019-03-11T02:06:45.741Z,2.45
2019-03-11T02:07:55.824Z,2.44
2019-03-11T02:09:05.929Z,2.42
2019-03-11T02:10:16.033Z,2.49
2019-03-11T02:11:26.124Z,2.45
2019-03-11T02:12:36.225Z,2.44
2019-03-11T02:13:46.322Z,2.48
2019-03-11T02:14:56.482Z,2.48
2019-03-11T02:16:06.579Z,2.46
2019-03-11T02:17:16.676Z,2.44
2019-03-11T02:18:26.773Z,2.44
2019-03-11T02:19:36.885Z,2.41
2019-03-11T02:20:46.981Z,2.36
2019-03-11T02:21:57.084Z,2.44
2019-03-11T02:23:07.199Z,2.45
2019-03-11T02:24:17.305Z,2.42
2019-03-11T02:25:27.422Z,2.31
2019-03-11T02:26:37.513Z,2.33
2019-03-11T02:27:47.323Z,2.34
2019-03-11T02:28:57.429Z,2.31
2019-03-11T02:30:07.544Z,2.24
2019-03-11T02:31:17.649Z,2.27
2019-03-11T02:32:31.140Z,2.26
2019-03-11T02:33:41.251Z,2.37
2019-03-11T02:34:51.391Z,2.33
2019-03-11T02:36:01.486Z,2.37
2019-03-11T02:37:11.578Z,2.24
2019-03-11T02:38:21.680Z,2.36
2019-03-11T02:39:31.798Z,2.31
2019-03-11T02:40:41.940Z,2.33
2019-03-11T02:41:51.780Z,2.31
2019-03-11T02:43:01.931Z,2.28
2019-03-11T02:44:12.180Z,2.26
2019-03-11T02:45:22.283Z,2.31
2019-03-11T02:46:32.411Z,2.27
2019-03-11T02:47:42.568Z,2.19
2019-03-11T02:48:52.684Z,2.24
2019-03-11T02:50:02.820Z,2.19
2019-03-11T02:51:12.939Z,2.12
2019-03-11T02:52:23.084Z,2.16
2019-03-11T02:53:33.258Z,2.12
2019-03-11T02:54:43.406Z,2.18
2019-03-11T02:55:55.994Z,2.16
2019-03-11T02:57:06.104Z,2.18
2019-03-11T02:58:16.207Z,2.19
2019-03-11T02:59:26.096Z,2.23
2019-03-11T03:00:37.937Z,2.08
2019-03-11T03:01:48.067Z,2.09
2019-03-11T03:02:58.175Z,2.13
2019-03-11T03:04:08.300Z,2.08
2019-03-11T03:05:18.468Z,2.09
2019-03-11T03:06:28.589Z,2.13
2019-03-11T03:07:38.707Z,2.19
2019-03-11T03:08:48.921Z,2.12
2019-03-11T03:09:59.034Z,2.19
2019-03-11T03:11:09.196Z,2.18
2019-03-11T03:12:19.302Z,2.16
2019-03-11T03:13:29.433Z,2.21
2019-03-11T03:14:39.568Z,2.18
2019-03-11T03:15:49.693Z,2.12
2019-03-11T03:16:59.798Z,2.1
2019-03-11T03:18:09.911Z,2.01
2019-03-11T03:19:20.009Z,2.06
2019-03-11T03:20:30.111Z,1.97
2019-03-11T03:21:40.231Z,1.9
2019-03-11T03:22:50.422Z,1.85
2019-03-11T03:24:00.555Z,1.95
2019-03-11T03:25:10.768Z,1.91
2019-03-11T03:26:20.882Z,1.82
2019-03-11T03:27:31.007Z,1.87
2019-03-11T03:28:41.465Z,1.9
2019-03-11T03:29:51.571Z,1.79
2019-03-11T03:31:01.862Z,1.82
2019-03-11T03:32:12.077Z,1.88
2019-03-11T03:33:22.243Z,1.91
2019-03-11T03:34:32.417Z,1.94
2019-03-11T03:35:42.581Z,1.82
2019-03-11T03:36:52.713Z,1.88
2019-03-11T03:38:02.823Z,1.88
2019-03-11T03:39:12.954Z,1.92
2019-03-11T03:40:23.087Z,1.76
2019-03-11T03:41:33.197Z,1.88
2019-03-11T03:42:43.451Z,1.79
2019-03-11T03:43:53.802Z,1.87
2019-03-11T03:45:03.909Z,1.88
2019-03-11T03:46:23.891Z,1.9
2019-03-11T03:47:33.997Z,1.84
2019-03-11T03:48:44.706Z,1.98
2019-03-11T03:49:55.462Z,1.98
2019-03-11T03:51:05.809Z,1.84
2019-03-11T03:52:15.918Z,1.84
2019-03-11T03:53:26.036Z,1.92
2019-03-11T03:54:36.150Z,1.97
2019-03-11T03:55:46.298Z,1.98
2019-03-11T03:56:59.045Z,2.03
2019-03-11T03:58:09.279Z,2
2019-03-11T03:59:19.388Z,1.98
2019-03-11T04:00:29.511Z,1.98
2019-03-11T04:01:39.662Z,2
2019-03-11T04:02:49.769Z,1.8
2019-03-11T04:03:59.889Z,1.84
2019-03-11T04:05:10.009Z,1.87
2019-03-11T04:06:20.128Z,1.98
2019-03-11T04:07:30.238Z,1.98
2019-03-11T04:08:40.354Z,2.05
2019-03-11T04:09:50.214Z,2.06
2019-03-11T04:11:00.428Z,1.92
2019-03-11T04:12:10.536Z,1.98
2019-03-11T04:13:20.750Z,1.92
2019-03-11T04:14:30.862Z,1.9
2019-03-11T04:15:40.958Z,1.84
2019-03-11T04:16:51.072Z,1.77
2019-03-11T04:18:01.225Z,1.79
2019-03-11T04:19:11.332Z,1.76
2019-03-11T04:20:21.482Z,1.72
2019-03-11T04:21:31.589Z,1.67
2019-03-11T04:22:41.707Z,1.64
2019-03-11T04:23:51.835Z,1.55
2019-03-11T04:25:01.950Z,1.69
2019-03-11T04:26:12.072Z,1.73
2019-03-11T04:27:22.172Z,1.74
2019-03-11T04:28:32.361Z,1.7
2019-03-11T04:29:42.263Z,1.72
2019-03-11T04:30:52.365Z,1.74
2019-03-11T04:32:02.552Z,1.69
2019-03-11T04:33:12.660Z,1.67
2019-03-11T04:34:22.536Z,1.57
2019-03-11T04:35:32.391Z,1.55
2019-03-11T04:36:42.511Z,1.7
2019-03-11T04:37:52.614Z,1.64
2019-03-11T04:39:02.459Z,1.57
2019-03-11T04:40:12.568Z,1.54
2019-03-11T04:41:22.663Z,1.6
2019-03-11T04:42:32.770Z,1.58
2019-03-11T04:43:42.869Z,1.58
2019-03-11T04:44:52.977Z,1.51
2019-03-11T04:46:03.095Z,1.48
2019-03-11T04:47:13.186Z,1.54
2019-03-11T04:48:23.279Z,1.53
2019-03-11T04:49:33.395Z,1.62
2019-03-11T04:50:43.236Z,1.53
2019-03-11T04:51:53.333Z,1.5
2019-03-11T04:53:03.433Z,1.58
2019-03-11T04:54:13.534Z,1.53
2019-03-11T04:55:23.718Z,1.5
2019-03-11T04:56:33.817Z,1.48
2019-03-11T04:57:43.548Z,1.5
2019-03-11T04:58:53.637Z,1.62
2019-03-11T05:00:03.751Z,1.57
2019-03-11T05:01:13.845Z,1.47
2019-03-11T05:02:24.057Z,1.57
2019-03-11T05:03:34.166Z,1.53
2019-03-11T05:04:44.290Z,1.58
2019-03-11T05:05:54.387Z,1.66
2019-03-11T05:07:04.226Z,1.67
2019-03-11T05:08:14.337Z,1.76
2019-03-11T05:09:24.516Z,1.74
2019-03-11T05:10:34.628Z,1.79
2019-03-11T05:11:44.483Z,1.73
2019-03-11T05:12:54.602Z,1.79
2019-03-11T05:14:04.723Z,1.87
2019-03-11T05:15:14.852Z,1.82
2019-03-11T05:16:24.623Z,1.82
2019-03-11T05:17:34.782Z,1.82
2019-03-11T05:18:44.895Z,1.88
2019-03-11T05:19:55.090Z,1.87
2019-03-11T05:21:05.177Z,1.91
2019-03-11T05:22:15.283Z,1.91
2019-03-11T05:23:25.383Z,1.9
2019-03-11T05:24:35.521Z,1.95
2019-03-11T05:25:45.786Z,2.01
2019-03-11T05:26:55.879Z,2.06
2019-03-11T05:28:06.010Z,1.97
2019-03-11T05:29:16.103Z,2.03
2019-03-11T05:30:26.209Z,2.03
2019-03-11T05:31:36.323Z,2.01
2019-03-11T05:32:46.429Z,2.06
2019-03-11T05:33:56.554Z,2.06
2019-03-11T05:35:06.779Z,2.06
2019-03-11T05:36:16.882Z,2.06
2019-03-11T05:37:26.984Z,2.03
2019-03-11T05:38:37.148Z,2.05
2019-03-11T05:39:47.266Z,2.06
2019-03-11T05:40:57.375Z,2.05
2019-03-11T05:42:07.489Z,2.03
2019-03-11T05:43:17.616Z,2.03
2019-03-11T05:44:27.476Z,1.98
2019-03-11T05:45:37.586Z,2.01
2019-03-11T05:46:47.695Z,2.1
2019-03-11T05:47:57.824Z,2.05
2019-03-11T05:49:07.927Z,2.15
2019-03-11T05:50:18.041Z,2.18
2019-03-11T05:51:36.198Z,2.09
2019-03-11T05:52:46.297Z,2.15
2019-03-11T05:53:56.218Z,2.15
2019-03-11T05:55:06.086Z,2.13
2019-03-11T05:56:16.177Z,2.12
2019-03-11T05:57:26.287Z,2.15
2019-03-11T05:58:36.416Z,2.18
2019-03-11T05:59:46.529Z,2.13
2019-03-11T06:00:56.626Z,2.08
2019-03-11T06:02:06.734Z,2.1
2019-03-11T06:03:16.848Z,2
2019-03-11T06:04:26.942Z,1.94
2019-03-11T06:05:37.078Z,1.95
2019-03-11T06:06:47.192Z,2
2019-03-11T06:07:57.302Z,1.92
2019-03-11T06:09:07.517Z,1.95
2019-03-11T06:10:17.620Z,1.92
2019-03-11T06:11:27.750Z,1.98
2019-03-11T06:12:37.853Z,2.06
2019-03-11T06:13:47.971Z,1.98
2019-03-11T06:14:58.068Z,1.92
2019-03-11T06:16:08.234Z,1.95
2019-03-11T06:17:18.341Z,2
2019-03-11T06:18:28.495Z,1.87
2019-03-11T06:19:38.592Z,1.9
2019-03-11T06:20:48.702Z,1.85
2019-03-11T06:21:58.808Z,1.88
2019-03-11T06:23:08.916Z,1.87
2019-03-11T06:24:19.023Z,1.77
2019-03-11T06:25:29.140Z,1.87
2019-03-11T06:26:39.322Z,1.94
2019-03-11T06:27:49.523Z,2.09
2019-03-11T06:28:59.621Z,2.21
2019-03-11T06:30:10.793Z,2.37
2019-03-11T06:31:20.900Z,2.34
2019-03-11T06:32:31.000Z,2.41
2019-03-11T06:33:41.109Z,2.46
2019-03-11T06:34:50.984Z,2.33
2019-03-11T06:36:01.091Z,2.28
2019-03-11T06:37:11.184Z,2.19
2019-03-11T06:38:21.282Z,2.1
2019-03-11T06:39:31.400Z,2.06
2019-03-11T06:40:41.503Z,2.05
2019-03-11T06:41:53.568Z,2.05
2019-03-11T06:43:03.664Z,2.03
2019-03-11T06:44:13.772Z,2.01
2019-03-11T06:45:23.872Z,2.03
2019-03-11T06:46:33.985Z,2.03
2019-03-11T06:47:44.092Z,1.94
2019-03-11T06:48:53.930Z,1.91
2019-03-11T06:50:04.029Z,1.85
2019-03-11T06:51:14.176Z,1.95
2019-03-11T06:52:24.445Z,1.98
2019-03-11T06:53:34.552Z,1.97
2019-03-11T06:54:44.654Z,2.01
2019-03-11T06:55:54.506Z,2.01
2019-03-11T06:57:04.618Z,2.05
2019-03-11T06:58:14.722Z,2.06
2019-03-11T06:59:24.848Z,2.03
2019-03-11T07:00:34.937Z,2.08
2019-03-11T07:01:45.033Z,2.19
2019-03-11T07:02:55.157Z,2.23
2019-03-11T07:04:04.919Z,2.33
2019-03-11T07:05:24.538Z,2.33
2019-03-11T07:06:34.638Z,2.42
2019-03-11T07:07:44.739Z,2.42
2019-03-11T07:08:54.867Z,2.52
2019-03-11T07:10:04.962Z,2.51
2019-03-11T07:11:15.065Z,2.52
2019-03-11T07:12:25.167Z,2.55
2019-03-11T07:13:35.304Z,2.55
2019-03-11T07:14:45.415Z,2.69
2019-03-11T07:15:55.524Z,2.77
2019-03-11T07:17:05.671Z,2.71
2019-03-11T07:18:15.794Z,2.78
2019-03-11T07:19:25.907Z,2.84
2019-03-11T07:20:36.008Z,2.79
2019-03-11T07:21:46.107Z,2.79
2019-03-11T07:22:56.231Z,2.84
2019-03-11T07:24:06.318Z,2.97
2019-03-11T07:25:16.059Z,2.96
2019-03-11T07:26:26.163Z,3.08
2019-03-11T07:27:36.013Z,3.04
2019-03-11T07:28:46.104Z,3.08
2019-03-11T07:29:56.204Z,3.16
2019-03-11T07:31:06.295Z,3.22
2019-03-11T07:32:16.410Z,3.29
2019-03-11T07:33:26.523Z,3.34
2019-03-11T07:34:36.623Z,3.4
2019-03-11T07:35:46.722Z,3.42
2019-03-11T07:36:56.852Z,3.37
2019-03-11T07:38:06.833Z,3.47
2019-03-11T07:39:16.963Z,3.55
2019-03-11T07:40:34.766Z,3.68
2019-03-11T07:41:44.859Z,3.69
2019-03-11T07:42:54.986Z,3.79
2019-03-11T07:44:05.183Z,3.86
2019-03-11T07:45:15.286Z,4.04
2019-03-11T07:46:25.389Z,4.09
2019-03-11T07:47:35.509Z,4.23
2019-03-11T07:48:45.249Z,4.36
2019-03-11T07:49:55.365Z,4.4
2019-03-11T07:51:05.681Z,4.62
2019-03-11T07:52:15.779Z,4.81
2019-03-11T07:53:25.896Z,5.06
2019-03-11T07:54:40.749Z,5.17
2019-03-11T07:55:50.850Z,5.29
2019-03-11T07:57:00.972Z,5.4
2019-03-11T07:58:11.073Z,5.68
2019-03-11T07:59:21.198Z,5.54
2019-03-11T08:00:31.318Z,5.79
2019-03-11T08:01:41.459Z,6.19
2019-03-11T08:02:51.590Z,6.24
2019-03-11T08:04:01.697Z,6.39
2019-03-11T08:05:11.815Z,6.21
2019-03-11T08:06:23.897Z,6.45
2019-03-11T08:07:34.057Z,6.57
2019-03-11T08:08:44.159Z,7.22
2019-03-11T08:09:54.256Z,7.51
2019-03-11T08:11:04.364Z,7.51
2019-03-11T08:12:14.470Z,7.29
2019-03-11T08:13:24.597Z,7.33
2019-03-11T08:14:34.710Z,7.21
2019-03-11T08:15:44.822Z,6.97
2019-03-11T08:16:54.936Z,6.54
2019-03-11T08:18:05.046Z,6.3
2019-03-11T08:19:16.259Z,6.01
2019-03-11T08:20:26.395Z,5.91
2019-03-11T08:21:36.263Z,5.53
2019-03-11T08:22:46.441Z,5.43
2019-03-11T08:23:56.773Z,5.21
2019-03-11T08:25:06.871Z,5.13
2019-03-11T08:26:17.012Z,5.06
2019-03-11T08:27:26.870Z,4.96
2019-03-11T08:28:37.048Z,5
2019-03-11T08:29:46.909Z,4.99
2019-03-11T08:30:57.022Z,4.98
2019-03-11T08:32:07.159Z,4.71
2019-03-11T08:33:17.275Z,4.6
2019-03-11T08:34:27.401Z,4.55
2019-03-11T08:35:37.507Z,4.57
2019-03-11T08:36:47.624Z,4.62
2019-03-11T08:37:57.801Z,4.63
2019-03-11T08:39:12.968Z,4.96
2019-03-11T08:40:23.095Z,5.28
2019-03-11T08:41:33.276Z,5.41
2019-03-11T08:42:43.382Z,5.59
2019-03-11T08:43:53.500Z,5.65
2019-03-11T08:45:03.622Z,5.74
2019-03-11T08:46:13.737Z,6.12
2019-03-11T08:47:23.882Z,5.98
2019-03-11T08:48:33.994Z,6.03
2019-03-11T08:49:44.095Z,6.26
2019-03-11T08:50:54.208Z,6.28
2019-03-11T08:52:05.407Z,6.54
2019-03-11T08:53:15.713Z,6.97
2019-03-11T08:54:25.841Z,7.24
2019-03-11T08:55:35.702Z,7.64
2019-03-11T08:56:45.827Z,7.73
2019-03-11T08:57:55.924Z,7.61
2019-03-11T08:59:06.043Z,7.48
2019-03-11T09:00:16.178Z,7.2
2019-03-11T09:01:26.291Z,7.22
2019-03-11T09:02:36.407Z,7.21
2019-03-11T09:03:47.878Z,7.06
2019-03-11T09:04:57.988Z,7.29
2019-03-11T09:06:08.212Z,7.24
2019-03-11T09:07:18.342Z,7.22
2019-03-11T09:08:28.497Z,7.8
2019-03-11T09:09:38.608Z,7.79
2019-03-11T09:10:48.726Z,7.77
2019-03-11T09:11:58.693Z,7.79
2019-03-11T09:13:08.812Z,8.16
2019-03-11T09:14:18.957Z,8.45
2019-03-11T09:15:28.715Z,8.53
2019-03-11T09:16:38.842Z,8.67
2019-03-11T09:17:48.970Z,8.92
2019-03-11T09:18:59.088Z,9.02
2019-03-11T09:20:09.225Z,9.09
2019-03-11T09:21:18.976Z,9.09
2019-03-11T09:22:29.099Z,8.98
2019-03-11T09:23:39.535Z,9.11
2019-03-11T09:24:49.682Z,8.8
2019-03-11T09:25:59.878Z,8.42
2019-03-11T09:27:10.005Z,8.15
2019-03-11T09:28:20.455Z,7.77
2019-03-11T09:29:30.899Z,7.48
2019-03-11T09:30:41.009Z,7.14
2019-03-11T09:31:50.904Z,6.92
2019-03-11T09:33:01.036Z,6.67
2019-03-11T09:34:13.790Z,6.53
2019-03-11T09:35:23.917Z,6.28
2019-03-11T09:36:35.033Z,6.09
2019-03-11T09:37:45.148Z,5.94
2019-03-11T09:38:56.234Z,5.86
2019-03-11T09:40:06.351Z,5.84
2019-03-11T09:41:16.473Z,5.68
2019-03-11T09:42:26.605Z,5.51
2019-03-11T09:43:36.740Z,5.47
2019-03-11T09:44:46.863Z,5.38
2019-03-11T09:45:57.616Z,5.24
2019-03-11T09:47:07.732Z,5.18
2019-03-11T09:48:17.584Z,5
2019-03-11T09:49:27.703Z,4.98
2019-03-11T09:50:37.833Z,4.92
2019-03-11T09:51:47.978Z,4.86
2019-03-11T09:52:58.127Z,4.71
2019-03-11T09:54:08.222Z,4.62
2019-03-11T09:55:18.099Z,4.62
2019-03-11T09:56:28.218Z,4.57
2019-03-11T09:57:48.588Z,4.46
2019-03-11T09:58:58.715Z,4.43
2019-03-11T10:00:09.105Z,4.37
2019-03-11T10:01:19.326Z,4.36
2019-03-11T10:02:30.252Z,4.38
2019-03-11T10:03:40.361Z,4.3
2019-03-11T10:04:50.473Z,4.38
2019-03-11T10:06:00.359Z,4.27
2019-03-11T10:07:10.468Z,4.25
2019-03-11T10:08:20.581Z,4.27
2019-03-11T10:09:30.702Z,4.22
2019-03-11T10:10:40.080Z,4.2
2019-03-11T10:11:50.250Z,4.28
2019-03-11T10:13:00.416Z,4.22
2019-03-11T10:14:10.543Z,4.25
2019-03-11T10:15:20.648Z,4.33
2019-03-11T10:16:30.766Z,4.34
2019-03-11T10:17:40.890Z,4.34
2019-03-11T10:18:52.811Z,4.36
2019-03-11T10:20:02.965Z,4.27
2019-03-11T10:21:13.126Z,4.37
2019-03-11T10:22:23.268Z,4.33
2019-03-11T10:23:37.097Z,4.33
2019-03-11T10:24:47.222Z,4.27
2019-03-11T10:25:57.333Z,4.31
2019-03-11T10:27:07.487Z,4.34
2019-03-11T10:28:17.334Z,4.31
2019-03-11T10:29:27.462Z,4.19
2019-03-11T10:30:37.339Z,4.19
2019-03-11T10:31:47.089Z,4.23
2019-03-11T10:32:57.234Z,4.2
2019-03-11T10:34:07.355Z,4.2
2019-03-11T10:35:36.062Z,4.23
2019-03-11T10:36:45.923Z,4.25
2019-03-11T10:37:56.042Z,4.18
2019-03-11T10:39:06.171Z,4.2
2019-03-11T10:40:16.107Z,4.23
2019-03-11T10:41:26.283Z,4.28
2019-03-11T10:42:36.390Z,4.28
2019-03-11T10:43:46.508Z,4.34
2019-03-11T10:44:56.608Z,4.4
2019-03-11T10:46:06.734Z,4.47
2019-03-11T10:47:16.864Z,4.55
2019-03-11T10:48:36.538Z,4.5
2019-03-11T10:49:47.410Z,4.56
2019-03-11T10:50:57.761Z,4.55
2019-03-11T10:52:09.881Z,4.57
2019-03-11T10:53:20.024Z,4.59
2019-03-11T10:54:30.137Z,4.53
2019-03-11T10:55:40.286Z,4.53
2019-03-11T10:56:50.408Z,4.57
2019-03-11T10:58:00.531Z,4.67
2019-03-11T10:59:10.643Z,4.71
2019-03-11T11:00:20.752Z,4.8
2019-03-11T11:01:30.869Z,4.85
2019-03-11T11:02:40.975Z,4.83
2019-03-11T11:03:51.079Z,4.86
2019-03-11T11:05:01.198Z,4.85
2019-03-11T11:06:11.312Z,4.86
2019-03-11T11:07:22.740Z,4.83
2019-03-11T11:08:32.882Z,4.83
2019-03-11T11:09:42.992Z,4.7
2019-03-11T11:10:53.128Z,4.74
2019-03-11T11:12:03.254Z,4.77
2019-03-11T11:13:13.396Z,4.74
2019-03-11T11:14:23.514Z,4.74
2019-03-11T11:15:33.618Z,4.65
2019-03-11T11:16:46.341Z,4.74
2019-03-11T11:17:56.539Z,4.74
2019-03-11T11:19:06.651Z,4.65
2019-03-11T11:20:16.761Z,4.7
2019-03-11T11:21:26.867Z,4.59
2019-03-11T11:22:36.993Z,4.62
2019-03-11T11:23:47.118Z,4.5
2019-03-11T11:24:57.251Z,4.52
2019-03-11T11:26:07.369Z,4.46
2019-03-11T11:27:17.488Z,4.53
2019-03-11T11:28:27.598Z,4.49
2019-03-11T11:29:37.701Z,4.62
2019-03-11T11:30:47.811Z,4.65
2019-03-11T11:31:57.929Z,4.67
2019-03-11T11:33:08.043Z,4.68
2019-03-11T11:34:18.163Z,4.7
2019-03-11T11:35:28.276Z,4.74
2019-03-11T11:36:38.404Z,4.85
2019-03-11T11:37:48.522Z,4.9
2019-03-11T11:38:58.618Z,4.86
2019-03-11T11:40:08.507Z,4.78
2019-03-11T11:41:21.334Z,4.8
2019-03-11T11:42:31.445Z,4.75
2019-03-11T11:43:41.557Z,4.71
2019-03-11T11:44:51.688Z,4.77
2019-03-11T11:46:01.538Z,4.74
2019-03-11T11:47:11.643Z,4.73
2019-03-11T11:48:21.780Z,4.88
2019-03-11T11:49:31.904Z,4.95
2019-03-11T11:50:42.005Z,5.07
2019-03-11T11:51:52.129Z,5.11
2019-03-11T11:53:02.028Z,5.18
2019-03-11T11:54:12.159Z,5.18
2019-03-11T11:55:22.283Z,5.33
2019-03-11T11:56:32.415Z,5.36
2019-03-11T11:57:42.541Z,5.46
2019-03-11T11:58:52.669Z,5.41
2019-03-11T12:00:02.704Z,5.5
2019-03-11T12:01:12.824Z,5.58
2019-03-11T12:02:22.935Z,5.58
2019-03-11T12:03:33.043Z,5.58
2019-03-11T12:04:43.151Z,5.51
2019-03-11T12:05:53.316Z,5.44
2019-03-11T12:07:03.437Z,5.31
2019-03-11T12:08:13.564Z,5.22
2019-03-11T12:09:23.701Z,5.31
2019-03-11T12:10:33.816Z,5.18
2019-03-11T12:11:43.933Z,5.16
2019-03-11T12:12:54.068Z,5.13
2019-03-11T12:14:04.247Z,5.1
2019-03-11T12:15:14.371Z,5.11
2019-03-11T12:16:24.494Z,5.11
2019-03-11T12:17:34.656Z,5.04
2019-03-11T12:18:44.817Z,5.11
2019-03-11T12:19:54.983Z,5.21
2019-03-11T12:21:05.120Z,5.24
2019-03-11T12:22:15.237Z,5.29
2019-03-11T12:23:25.389Z,5.18
2019-03-11T12:24:35.494Z,5.24
2019-03-11T12:25:45.621Z,5.28
2019-03-11T12:26:55.739Z,5.36
2019-03-11T12:28:05.847Z,5.41
2019-03-11T12:29:15.951Z,5.43
2019-03-11T12:30:25.824Z,5.43
2019-03-11T12:31:35.958Z,5.4
2019-03-11T12:32:46.113Z,5.29
2019-03-11T12:33:56.226Z,5.25
2019-03-11T12:35:06.411Z,5.29
2019-03-11T12:36:16.600Z,5.18
2019-03-11T12:37:26.765Z,5.21
2019-03-11T12:38:36.969Z,5.28
2019-03-11T12:39:47.091Z,5.14
2019-03-11T12:40:57.225Z,5.16
2019-03-11T12:42:07.345Z,5.04
2019-03-11T12:43:17.483Z,5.11
2019-03-11T12:44:27.597Z,5.1
2019-03-11T12:45:37.730Z,5.17
2019-03-11T12:46:47.842Z,5.31
2019-03-11T12:47:58.018Z,5.22
2019-03-11T12:49:08.124Z,5.25
2019-03-11T12:50:19.759Z,5.28
2019-03-11T12:51:29.924Z,5.25
2019-03-11T12:52:40.046Z,5.26
2019-03-11T12:53:50.217Z,5.26
2019-03-11T12:55:00.354Z,5.18
2019-03-11T12:56:10.562Z,5.07
2019-03-11T12:57:20.677Z,4.9
2019-03-11T12:58:40.945Z,4.81
2019-03-11T12:59:51.794Z,4.8
2019-03-11T13:01:03.494Z,4.74
2019-03-11T13:02:13.807Z,4.62
2019-03-11T13:03:23.953Z,4.56
2019-03-11T13:04:34.049Z,4.5
2019-03-11T13:05:44.184Z,4.49
2019-03-11T13:06:54.382Z,4.43
2019-03-11T13:08:04.257Z,4.4
2019-03-11T13:09:14.371Z,4.43
2019-03-11T13:10:24.493Z,4.53
2019-03-11T13:11:34.615Z,4.7
2019-03-11T13:12:44.743Z,4.7
2019-03-11T13:13:54.850Z,4.81
2019-03-11T13:15:04.976Z,4.83
2019-03-11T13:16:14.832Z,5.03
2019-03-11T13:17:24.965Z,5.07
2019-03-11T13:18:35.708Z,5.21
2019-03-11T13:19:45.833Z,5.26
2019-03-11T13:20:55.964Z,5.17
2019-03-11T13:22:06.085Z,5.29
2019-03-11T13:23:15.953Z,5.43
2019-03-11T13:24:26.095Z,5.46
2019-03-11T13:25:35.835Z,5.54
2019-03-11T13:26:45.957Z,5.65
2019-03-11T13:27:56.095Z,5.65
2019-03-11T13:29:06.253Z,5.65
2019-03-11T13:30:16.395Z,5.83
2019-03-11T13:31:26.538Z,5.82
2019-03-11T13:32:36.422Z,5.84
2019-03-11T13:33:46.365Z,5.98
2019-03-11T13:34:56.502Z,6.09
2019-03-11T13:36:06.284Z,6.23
2019-03-11T13:37:16.414Z,6.3
2019-03-11T13:38:26.550Z,6.48
2019-03-11T13:39:36.672Z,6.46
2019-03-11T13:40:46.530Z,6.56
2019-03-11T13:41:58.010Z,6.46
2019-03-11T13:43:08.149Z,6.45
2019-03-11T13:44:18.274Z,6.39
2019-03-11T13:45:28.429Z,6.21
2019-03-11T13:46:38.579Z,6.14
2019-03-11T13:47:48.684Z,5.98
2019-03-11T13:48:58.576Z,5.9
2019-03-11T13:50:08.694Z,5.86
2019-03-11T13:51:18.811Z,5.9
2019-03-11T13:52:29.059Z,6.01
2019-03-11T13:53:39.170Z,5.93
2019-03-11T13:54:49.327Z,5.94
2019-03-11T13:55:59.448Z,5.96
2019-03-11T13:57:09.576Z,6.05
2019-03-11T13:58:19.696Z,5.99
2019-03-11T13:59:29.590Z,5.99
2019-03-11T14:00:39.721Z,6.14
2019-03-11T14:01:49.838Z,6.08
2019-03-11T14:02:59.986Z,6.14
2019-03-11T14:04:10.106Z,6.21
2019-03-11T14:05:20.266Z,6.23
2019-03-11T14:06:30.489Z,6.28
2019-03-11T14:07:40.363Z,6.24
2019-03-11T14:08:50.492Z,6.14
2019-03-11T14:10:00.628Z,6.16
2019-03-11T14:11:10.763Z,6.17
2019-03-11T14:12:20.879Z,6.08
2019-03-11T14:13:30.851Z,6.11
2019-03-11T14:14:40.976Z,6.06
2019-03-11T14:15:51.108Z,6.06
2019-03-11T14:17:02.555Z,6.05
2019-03-11T14:18:12.696Z,5.98
2019-03-11T14:19:22.836Z,5.91
2019-03-11T14:20:32.973Z,5.88
2019-03-11T14:21:43.155Z,5.94
2019-03-11T14:22:53.294Z,5.74
2019-03-11T14:24:03.441Z,5.84
2019-03-11T14:25:13.557Z,5.77
2019-03-11T14:26:23.683Z,5.75
2019-03-11T14:27:33.803Z,5.72
2019-03-11T14:28:43.690Z,5.69
2019-03-11T14:29:53.818Z,5.62
2019-03-11T14:31:03.971Z,5.54
2019-03-11T14:32:17.980Z,5.43
2019-03-11T14:33:28.611Z,5.33
2019-03-11T14:34:38.735Z,5.29
2019-03-11T14:35:48.870Z,5.26
2019-03-11T14:37:00.147Z,5.29
2019-03-11T14:38:10.288Z,5.33
2019-03-11T14:39:20.160Z,5.26
2019-03-11T14:40:30.428Z,5.29
2019-03-11T14:41:40.579Z,5.33
2019-03-11T14:42:50.707Z,5.4
2019-03-11T14:44:00.596Z,5.33
2019-03-11T14:45:13.372Z,5.29
2019-03-11T14:46:23.482Z,5.41
2019-03-11T14:47:33.640Z,5.38
2019-03-11T14:48:43.789Z,5.49
2019-03-11T14:49:53.936Z,5.46
2019-03-11T14:51:04.109Z,5.43
2019-03-11T14:52:14.270Z,5.41
2019-03-11T14:53:24.393Z,5.5
2019-03-11T14:54:34.505Z,5.38
2019-03-11T14:55:44.980Z,5.41
2019-03-11T14:56:55.153Z,5.46
2019-03-11T14:58:06.123Z,5.29
2019-03-11T14:59:16.246Z,5.18
2019-03-11T15:00:26.384Z,5.35
2019-03-11T15:01:36.499Z,5.21
2019-03-11T15:02:46.684Z,5.22
2019-03-11T15:03:56.825Z,5.28
2019-03-11T15:05:06.998Z,5.31
2019-03-11T15:06:17.102Z,5.22
2019-03-11T15:07:27.208Z,5.21
2019-03-11T15:08:37.354Z,5.22
2019-03-11T15:09:56.133Z,5.16
2019-03-11T15:11:06.266Z,5.18
2019-03-11T15:12:16.413Z,5.26
2019-03-11T15:13:26.534Z,5.24
2019-03-11T15:14:38.582Z,5.22
2019-03-11T15:15:48.705Z,5.21
2019-03-11T15:16:58.872Z,5.16
2019-03-11T15:18:09.005Z,5.16
2019-03-11T15:19:21.429Z,5.07
2019-03-11T15:20:31.706Z,4.96
2019-03-11T15:21:41.985Z,4.85
2019-03-11T15:22:52.161Z,4.75
2019-03-11T15:24:11.610Z,4.6
2019-03-11T15:25:21.792Z,4.56
2019-03-11T15:26:31.918Z,4.41
2019-03-11T15:27:42.078Z,4.4
2019-03-11T15:28:52.217Z,4.33
2019-03-11T15:30:02.104Z,4.23
2019-03-11T15:31:16.294Z,4.09
2019-03-11T15:32:26.492Z,4.2
2019-03-11T15:33:36.691Z,4.11
2019-03-11T15:34:46.815Z,4.12
2019-03-11T15:35:56.964Z,3.98
2019-03-11T15:37:07.818Z,4.03
2019-03-11T15:38:18.054Z,3.93
2019-03-11T15:39:28.994Z,3.83